Time;durP1;ratioP1;P1;durP2;ratioP2;P2;SDS_P1;SDS_P2;PMS_P1;PMS_P2;Temp;Humidity;BMP_temperature;BMP_pressure;BME280_temperature;BME280_humidity;BME280_pressure;Samples;Min_cycle;Max_cycle;Signal;HPM_P1;HPM_P2
2023/12/21 00:01:27;;;;;;;6.30;3.10;;;;;;;3.84;88.88;99173.70;110856;242;154767;-74
2023/12/21 00:04:01;;;;;;;8.20;3.20;;;;;;;3.85;89.08;99171.10;111062;244;39541;-74
2023/12/21 00:06:35;;;;;;;11.60;3.90;;;;;;;3.86;88.88;99164.17;110252;244;914121;-74
2023/12/21 00:09:08;;;;;;;8.40;3.40;;;;;;;3.85;88.52;99170.07;110941;244;38243;-74
2023/12/21 00:11:42;;;;;;;9.20;3.40;;;;;;;3.83;88.63;99169.41;110959;244;38348;-71
2023/12/21 00:14:16;;;;;;;8.60;3.50;;;;;;;3.84;88.53;99166.96;110837;242;153674;-71
2023/12/21 00:16:50;;;;;;;7.00;3.10;;;;;;;3.85;88.47;99165.40;110972;244;38387;-72
2023/12/21 00:19:24;;;;;;;6.40;3.00;;;;;;;3.85;88.49;99158.49;110839;242;153872;-73
2023/12/21 00:21:58;;;;;;;9.60;4.20;;;;;;;3.85;88.39;99160.22;110962;244;38434;-69
2023/12/21 00:24:32;;;;;;;9.20;3.60;;;;;;;3.83;88.35;99158.02;110966;244;39463;-69
2023/12/21 00:27:06;;;;;;;7.30;3.50;;;;;;;3.82;88.22;99154.08;110875;242;153641;-74
2023/12/21 00:29:40;;;;;;;6.50;2.90;;;;;;;3.82;88.24;99151.85;110965;244;38681;-74
2023/12/21 00:32:14;;;;;;;8.30;3.20;;;;;;;3.80;88.06;99146.56;110856;241;153192;-73
2023/12/21 00:34:49;;;;;;;8.00;3.70;;;;;;;3.78;88.16;99140.60;110949;244;38831;-72
2023/12/21 00:37:23;;;;;;;8.50;3.70;;;;;;;3.73;88.00;99138.66;110846;242;152985;-73
2023/12/21 00:39:57;;;;;;;8.80;4.20;;;;;;;3.65;87.98;99139.77;110937;244;39694;-72
2023/12/21 00:42:31;;;;;;;8.90;3.90;;;;;;;3.59;88.01;99145.32;110962;244;39635;-71
2023/12/21 00:45:06;;;;;;;9.90;3.50;;;;;;;3.56;88.18;99144.20;110852;242;153577;-71
2023/12/21 00:47:41;;;;;;;5.20;3.60;;;;;;;3.56;88.52;99135.56;110987;244;38541;-70
2023/12/21 00:50:15;;;;;;;7.40;3.70;;;;;;;3.56;88.47;99132.96;110807;244;152874;-70
2023/12/21 00:52:48;;;;;;;8.00;4.10;;;;;;;3.53;88.33;99140.99;110947;244;38407;-70
2023/12/21 00:55:22;;;;;;;7.70;3.80;;;;;;;3.47;88.34;99143.05;110840;242;154169;-70
2023/12/21 00:57:56;;;;;;;11.20;4.20;;;;;;;3.41;88.25;99144.44;110966;244;38737;-72
2023/12/21 01:00:33;;;;;;;6.70;3.20;;;;;;;3.37;88.53;99145.41;110948;244;38245;-74
2023/12/21 01:03:07;;;;;;;7.50;3.90;;;;;;;3.37;88.83;99143.86;110861;242;153267;-72
2023/12/21 01:05:43;;;;;;;7.10;3.50;;;;;;;3.40;89.12;99139.65;110998;244;38918;-73
2023/12/21 01:08:17;;;;;;;10.90;4.50;;;;;;;3.43;89.19;99135.77;110849;242;152869;-73
2023/12/21 01:10:50;;;;;;;9.70;4.00;;;;;;;3.45;89.19;99133.81;110959;244;38192;-74
2023/12/21 01:13:25;;;;;;;9.20;3.70;;;;;;;3.47;89.26;99129.61;110845;242;153832;-73
2023/12/21 01:16:00;;;;;;;10.30;4.30;;;;;;;3.50;89.36;99123.49;110961;244;38663;-72
2023/12/21 01:18:33;;;;;;;7.60;3.70;;;;;;;3.53;89.29;99125.99;110936;244;38647;-72
2023/12/21 01:21:08;;;;;;;14.30;4.20;;;;;;;3.52;89.08;99127.56;110806;241;153504;-71
2023/12/21 01:23:42;;;;;;;10.30;4.20;;;;;;;3.51;89.03;99123.12;110962;244;38763;-70
2023/12/21 01:26:15;;;;;;;9.00;4.10;;;;;;;3.47;88.93;99118.05;110818;242;153098;-74
2023/12/21 01:28:49;;;;;;;12.50;4.80;;;;;;;3.43;88.99;99115.27;110953;244;38304;-74
2023/12/21 01:31:24;;;;;;;10.10;4.10;;;;;;;3.40;89.13;99104.15;110851;242;153847;-71
2023/12/21 01:33:57;;;;;;;8.00;3.60;;;;;;;3.39;89.21;99104.17;110903;244;40042;-71
2023/12/21 01:36:31;;;;;;;8.50;3.50;;;;;;;3.39;89.32;99105.20;110935;244;38529;-73
2023/12/21 01:39:06;;;;;;;14.40;5.30;;;;;;;3.40;89.43;99091.72;110839;242;153720;-72
2023/12/21 01:41:42;;;;;;;10.90;4.20;;;;;;;3.41;89.53;99086.86;110982;244;38297;-70
2023/12/21 01:44:16;;;;;;;13.30;4.60;;;;;;;3.42;89.59;99088.73;110848;244;153911;-71
2023/12/21 01:46:50;;;;;;;10.00;4.10;;;;;;;3.42;89.58;99087.37;111000;244;39537;-70
2023/12/21 01:49:24;;;;;;;11.60;4.40;;;;;;;3.41;89.74;99088.06;110806;241;153904;-69
2023/12/21 01:51:58;;;;;;;10.80;4.00;;;;;;;3.41;89.70;99088.59;111088;243;39344;-69
2023/12/21 01:54:32;;;;;;;9.20;3.70;;;;;;;3.42;89.65;99080.79;111102;244;38706;-70
2023/12/21 01:57:06;;;;;;;11.20;4.30;;;;;;;3.44;89.75;99077.45;110775;243;175795;-70
2023/12/21 01:59:39;;;;;;;12.10;4.20;;;;;;;3.47;89.87;99080.82;110981;245;38853;-70
2023/12/21 02:02:13;;;;;;;10.40;4.70;;;;;;;3.49;89.94;99074.55;110867;242;152985;-73
2023/12/21 02:04:48;;;;;;;12.00;4.50;;;;;;;3.50;89.99;99072.30;111028;244;39829;-73
2023/12/21 02:07:22;;;;;;;7.20;3.60;;;;;;;3.51;90.07;99069.30;110829;243;154165;-68
2023/12/21 02:09:55;;;;;;;12.50;3.70;;;;;;;3.54;90.00;99060.11;110964;245;38423;-70
2023/12/21 02:12:29;;;;;;;10.10;4.40;;;;;;;3.57;90.03;99055.52;110959;245;38692;-73
2023/12/21 02:15:04;;;;;;;11.70;5.20;;;;;;;3.60;89.96;99055.27;110845;242;153644;-73
2023/12/21 02:17:38;;;;;;;9.60;4.20;;;;;;;3.65;90.06;99054.77;110899;244;39054;-74
2023/12/21 02:20:12;;;;;;;11.10;4.30;;;;;;;3.68;90.06;99046.38;110821;244;153014;-72
2023/12/21 02:22:46;;;;;;;9.20;4.00;;;;;;;3.69;89.94;99047.38;110933;244;39035;-69
2023/12/21 02:25:20;;;;;;;9.20;4.10;;;;;;;3.72;89.90;99046.10;110822;241;153869;-70
2023/12/21 02:27:55;;;;;;;9.20;3.40;;;;;;;3.73;89.74;99043.30;110913;244;38364;-74
2023/12/21 02:30:29;;;;;;;8.60;3.80;;;;;;;3.74;89.68;99039.80;111065;243;38692;-72
2023/12/21 02:33:06;;;;;;;11.30;3.90;;;;;;;3.77;89.69;99037.30;110961;243;154815;-74
2023/12/21 02:35:40;;;;;;;10.30;3.80;;;;;;;3.79;89.63;99032.23;110998;244;39326;-71
2023/12/21 02:38:14;;;;;;;12.10;4.00;;;;;;;3.80;89.72;99028.23;110870;243;153880;-69
2023/12/21 02:40:48;;;;;;;7.00;3.90;;;;;;;3.80;89.74;99022.02;111008;245;38424;-72
2023/12/21 02:43:22;;;;;;;10.20;4.10;;;;;;;3.81;89.63;99020.12;110856;242;153956;-74
2023/12/21 02:45:56;;;;;;;8.30;4.20;;;;;;;3.82;89.65;99010.58;111050;244;39479;-72
2023/12/21 02:48:30;;;;;;;10.60;4.00;;;;;;;3.85;89.53;99009.30;110835;244;175766;-71
2023/12/21 02:51:05;;;;;;;9.30;4.80;;;;;;;3.86;89.25;99002.52;110828;243;153623;-73
2023/12/21 02:53:40;;;;;;;10.10;4.40;;;;;;;3.86;89.28;98997.50;110946;245;39155;-73
2023/12/21 02:56:14;;;;;;;14.00;4.60;;;;;;;3.86;89.12;98991.64;110860;242;154390;-72
2023/12/21 02:58:48;;;;;;;8.80;4.30;;;;;;;3.86;89.14;98989.05;110971;244;38853;-74
2023/12/21 03:01:21;;;;;;;8.60;3.60;;;;;;;3.88;89.16;98987.79;110856;242;153956;-74
2023/12/21 03:03:55;;;;;;;9.90;3.40;;;;;;;3.89;89.13;98983.96;110890;244;38923;-74
2023/12/21 03:06:29;;;;;;;7.40;3.80;;;;;;;3.91;89.10;98976.84;110966;244;38225;-71
2023/12/21 03:09:03;;;;;;;10.10;4.10;;;;;;;3.93;89.03;98970.02;110898;241;153734;-72
2023/12/21 03:11:37;;;;;;;10.70;4.30;;;;;;;3.94;88.92;98963.11;111094;243;38325;-71
2023/12/21 03:14:11;;;;;;;12.00;4.30;;;;;;;3.93;88.90;98951.22;110914;242;153929;-71
2023/12/21 03:16:45;;;;;;;10.90;3.60;;;;;;;3.93;88.91;98946.56;111082;243;39809;-72
2023/12/21 03:19:19;;;;;;;7.50;3.10;;;;;;;3.93;88.81;98940.35;110929;242;154847;-73
2023/12/21 03:21:53;;;;;;;8.50;3.40;;;;;;;3.94;88.92;98934.27;111013;244;38929;-70
2023/12/21 03:24:27;;;;;;;9.80;3.30;;;;;;;3.96;88.92;98929.21;111022;244;39899;-69
2023/12/21 03:27:01;;;;;;;7.90;3.10;;;;;;;3.97;88.89;98927.09;110950;243;153902;-72
2023/12/21 03:29:35;;;;;;;8.90;3.40;;;;;;;3.99;88.95;98926.02;111044;243;38339;-71
2023/12/21 03:32:11;;;;;;;8.90;4.10;;;;;;;3.99;88.90;98921.16;110988;242;153626;-72
2023/12/21 03:34:45;;;;;;;11.80;4.20;;;;;;;3.99;88.81;98918.91;111039;243;38343;-73
2023/12/21 03:37:19;;;;;;;9.50;3.30;;;;;;;4.01;88.72;98916.97;110913;241;155135;-69
2023/12/21 03:39:53;;;;;;;6.10;3.40;;;;;;;4.01;88.78;98911.95;111012;243;38264;-69
2023/12/21 03:42:27;;;;;;;8.60;3.70;;;;;;;4.02;88.78;98911.23;110971;243;173065;-71
2023/12/21 03:45:00;;;;;;;7.10;3.30;;;;;;;4.02;88.69;98903.81;110917;242;153434;-71
2023/12/21 03:47:34;;;;;;;7.70;3.50;;;;;;;4.02;88.53;98900.19;110979;243;38566;-72
2023/12/21 03:50:10;;;;;;;9.40;2.60;;;;;;;4.01;88.46;98893.85;110908;244;155090;-71
2023/12/21 03:52:44;;;;;;;8.50;3.40;;;;;;;4.02;88.49;98888.28;111052;244;38239;-74
2023/12/21 03:55:19;;;;;;;9.40;3.40;;;;;;;4.03;88.49;98879.62;110806;241;154015;-73
2023/12/21 03:57:53;;;;;;;7.50;3.10;;;;;;;4.05;88.52;98875.08;111008;244;39097;-71
2023/12/21 04:00:27;;;;;;;8.80;3.00;;;;;;;4.04;88.58;98876.80;111067;243;38246;-70
2023/12/21 04:03:06;;;;;;;8.10;3.50;;;;;;;4.05;88.46;98868.16;110942;243;154557;-70
2023/12/21 04:06:00;;;;;;;7.20;3.00;;;;;;;4.04;88.06;98867.84;110996;244;38523;-70
2023/12/21 04:08:34;;;;;;;9.50;3.10;;;;;;;4.05;88.32;98863.34;110896;242;153911;-69
2023/12/21 04:11:08;;;;;;;11.60;4.10;;;;;;;4.06;88.38;98856.20;110934;245;38677;-70
2023/12/21 04:13:42;;;;;;;8.80;3.70;;;;;;;4.06;88.34;98851.36;110850;241;153644;-71
2023/12/21 04:16:16;;;;;;;6.70;2.90;;;;;;;4.06;88.19;98852.40;111034;244;39701;-73
2023/12/21 04:18:50;;;;;;;9.30;4.10;;;;;;;4.04;88.21;98849.71;110902;244;38632;-72
2023/12/21 04:21:23;;;;;;;7.10;3.20;;;;;;;4.05;88.15;98849.02;110958;244;38249;-69
2023/12/21 04:23:57;;;;;;;10.70;3.60;;;;;;;4.03;88.09;98845.60;110923;244;38967;-72
2023/12/21 04:26:31;;;;;;;8.40;3.60;;;;;;;4.02;88.14;98844.42;110906;242;153997;-72
2023/12/21 04:29:05;;;;;;;7.40;3.50;;;;;;;4.03;88.32;98841.82;110956;243;39495;-73
2023/12/21 04:31:42;;;;;;;8.50;3.50;;;;;;;4.03;88.37;98834.41;110880;241;153393;-71
2023/12/21 04:34:16;;;;;;;9.10;3.90;;;;;;;4.02;88.37;98827.21;111026;244;39010;-71
2023/12/21 04:36:50;;;;;;;5.60;3.30;;;;;;;4.00;88.32;98820.21;111070;244;39488;-71
2023/12/21 04:39:24;;;;;;;8.90;3.20;;;;;;;3.98;88.41;98815.27;110950;242;154531;-69
2023/12/21 04:41:59;;;;;;;6.70;3.40;;;;;;;3.97;88.41;98811.84;110958;244;38524;-72
2023/12/21 04:44:33;;;;;;;7.20;3.80;;;;;;;3.97;88.52;98807.55;110965;242;153409;-72
2023/12/21 04:47:09;;;;;;;8.10;3.10;;;;;;;3.99;88.76;98800.05;111052;244;39034;-74
2023/12/21 04:49:43;;;;;;;8.10;3.70;;;;;;;4.00;88.73;98797.78;110993;244;38853;-73
2023/12/21 04:52:17;;;;;;;9.20;3.50;;;;;;;3.98;88.70;98795.42;111009;244;38540;-74
2023/12/21 04:54:51;;;;;;;6.00;3.00;;;;;;;3.98;88.77;98792.33;110870;244;175751;-73
2023/12/21 04:57:25;;;;;;;6.30;2.80;;;;;;;3.97;88.78;98785.11;110865;242;154171;-70
2023/12/21 04:59:59;;;;;;;8.00;3.80;;;;;;;3.97;88.85;98783.75;110980;244;38536;-70
2023/12/21 05:02:33;;;;;;;5.90;3.00;;;;;;;3.99;88.98;98780.73;110878;242;154584;-72
2023/12/21 05:05:08;;;;;;;6.80;3.00;;;;;;;4.00;89.02;98780.88;110961;244;39957;-72
2023/12/21 05:07:41;;;;;;;7.90;3.10;;;;;;;3.98;89.12;98776.27;110861;242;153242;-73
2023/12/21 05:10:15;;;;;;;9.40;3.50;;;;;;;3.95;89.14;98772.06;111044;243;39433;-73
2023/12/21 05:12:50;;;;;;;6.80;3.10;;;;;;;3.95;89.33;98766.89;111094;244;38407;-72
2023/12/21 05:15:25;;;;;;;6.40;2.60;;;;;;;3.95;89.34;98757.23;110918;242;154361;-70
2023/12/21 05:17:59;;;;;;;5.00;2.90;;;;;;;3.96;89.50;98756.35;110996;244;39620;-71
2023/12/21 05:20:34;;;;;;;6.40;3.30;;;;;;;3.97;89.68;98757.34;110860;241;154501;-71
2023/12/21 05:23:09;;;;;;;4.20;3.00;;;;;;;3.97;89.72;98747.31;111089;243;39402;-73
2023/12/21 05:25:44;;;;;;;6.60;3.40;;;;;;;3.96;89.81;98743.39;111085;243;39749;-72
2023/12/21 05:28:19;;;;;;;5.10;3.00;;;;;;;3.94;89.92;98742.27;111050;243;38434;-71
2023/12/21 05:30:52;;;;;;;5.40;2.60;;;;;;;3.94;90.05;98736.92;111108;243;39190;-73
2023/12/21 05:33:26;;;;;;;4.10;2.60;;;;;;;3.94;90.22;98733.11;111126;243;38260;-74
2023/12/21 05:36:00;;;;;;;7.60;2.90;;;;;;;3.94;90.41;98721.41;111151;243;38271;-73
2023/12/21 05:38:35;;;;;;;3.70;2.80;;;;;;;3.94;90.54;98717.23;110992;242;154551;-75
2023/12/21 05:41:09;;;;;;;3.60;3.10;;;;;;;3.96;90.80;98710.64;111061;243;40295;-70
2023/12/21 05:43:43;;;;;;;5.30;3.10;;;;;;;3.95;90.93;98706.52;111012;244;38223;-72
2023/12/21 05:46:17;;;;;;;5.40;2.80;;;;;;;3.95;91.06;98704.79;111031;244;38467;-74
2023/12/21 05:48:52;;;;;;;5.30;2.70;;;;;;;3.95;91.08;98701.70;111006;244;38356;-72
2023/12/21 05:51:26;;;;;;;3.70;2.60;;;;;;;3.95;91.13;98701.53;111015;243;39560;-72
2023/12/21 05:54:04;;;;;;;4.90;3.10;;;;;;;3.93;91.32;98704.33;111010;244;38315;-71
2023/12/21 05:56:42;;;;;;;3.70;2.60;;;;;;;3.93;91.44;98698.30;110879;242;153746;-68
2023/12/21 05:59:16;;;;;;;5.20;2.90;;;;;;;3.95;91.60;98691.16;110960;244;38406;-71
2023/12/21 06:01:50;;;;;;;5.00;2.80;;;;;;;3.95;91.68;98692.71;110988;244;38517;-73
2023/12/21 06:04:24;;;;;;;3.60;2.80;;;;;;;3.93;91.64;98697.27;110987;244;39236;-74
2023/12/21 06:06:58;;;;;;;3.30;2.90;;;;;;;3.92;91.82;98695.77;110984;244;38097;-72
2023/12/21 06:09:32;;;;;;;4.10;2.70;;;;;;;3.93;91.95;98688.31;110991;244;38411;-70
2023/12/21 06:12:09;;;;;;;2.90;2.50;;;;;;;3.95;92.05;98684.44;110987;244;40003;-71
2023/12/21 06:14:43;;;;;;;5.70;3.30;;;;;;;3.93;91.92;98678.63;110976;244;40363;-71
2023/12/21 06:17:17;;;;;;;3.30;3.00;;;;;;;3.92;92.07;98673.16;111066;244;38572;-74
2023/12/21 06:19:51;;;;;;;6.70;3.10;;;;;;;3.90;92.21;98669.27;111052;244;38276;-74
2023/12/21 06:22:25;;;;;;;5.40;3.00;;;;;;;3.88;92.39;98664.84;111037;244;39086;-73
2023/12/21 06:24:59;;;;;;;3.00;2.50;;;;;;;3.87;92.46;98657.45;111025;244;38242;-74
2023/12/21 06:27:33;;;;;;;3.10;2.40;;;;;;;3.86;92.60;98658.71;111035;244;38246;-68
2023/12/21 06:30:10;;;;;;;4.70;2.70;;;;;;;3.86;92.70;98659.05;110996;244;38738;-70
2023/12/21 06:32:44;;;;;;;3.20;2.10;;;;;;;3.86;92.78;98654.77;110903;241;152695;-72
2023/12/21 06:35:18;;;;;;;3.40;2.20;;;;;;;3.82;92.91;98648.52;111063;243;38424;-75
2023/12/21 06:37:52;;;;;;;2.40;2.20;;;;;;;3.77;93.03;98641.30;110972;244;40668;-73
2023/12/21 06:40:26;;;;;;;3.20;2.60;;;;;;;3.72;93.01;98641.33;110848;243;153622;-74
2023/12/21 06:43:00;;;;;;;2.90;2.60;;;;;;;3.71;93.29;98638.27;110857;244;175780;-74
2023/12/21 06:45:34;;;;;;;3.60;2.20;;;;;;;3.72;93.36;98635.47;110891;244;153754;-72
2023/12/21 06:48:10;;;;;;;4.10;2.60;;;;;;;3.72;93.44;98627.52;111052;243;38639;-74
2023/12/21 06:50:44;;;;;;;3.00;2.10;;;;;;;3.72;93.43;98625.27;110805;244;153703;-71
2023/12/21 06:53:19;;;;;;;2.60;2.20;;;;;;;3.72;93.52;98626.84;110938;245;38544;-69
2023/12/21 06:55:55;;;;;;;3.60;2.10;;;;;;;3.73;93.69;98621.61;110941;245;39198;-72
2023/12/21 06:58:28;;;;;;;2.80;2.50;;;;;;;3.75;93.81;98613.80;110942;241;153734;-71
2023/12/21 07:01:08;;;;;;;2.70;2.30;;;;;;;3.79;94.05;98606.58;111086;243;38817;-68
2023/12/21 07:03:47;;;;;;;2.10;1.90;;;;;;;3.81;94.10;98600.77;110888;243;153482;-68
2023/12/21 07:06:25;;;;;;;2.80;2.40;;;;;;;3.80;93.83;98598.96;111009;245;38261;-71
2023/12/21 07:08:59;;;;;;;2.20;2.00;;;;;;;3.78;93.93;98596.27;110849;242;153668;-72
2023/12/21 07:11:33;;;;;;;3.30;2.70;;;;;;;3.75;93.92;98590.14;111002;244;38395;-71
2023/12/21 07:14:06;;;;;;;3.30;2.20;;;;;;;3.73;93.95;98584.88;110969;244;39973;-72
2023/12/21 07:16:40;;;;;;;3.50;2.00;;;;;;;3.71;94.01;98580.64;110858;243;153573;-73
2023/12/21 07:19:14;;;;;;;3.00;2.50;;;;;;;3.71;94.07;98573.09;110957;245;39624;-73
2023/12/21 07:21:54;;;;;;;2.60;2.10;;;;;;;3.69;94.11;98573.69;110857;242;153443;-69
2023/12/21 07:24:32;;;;;;;3.30;2.40;;;;;;;3.66;94.29;98567.23;110835;244;176265;-69
2023/12/21 07:27:06;;;;;;;2.70;2.10;;;;;;;3.68;94.62;98556.43;110848;242;153170;-73
2023/12/21 07:29:40;;;;;;;2.90;2.30;;;;;;;3.73;94.86;98546.26;110951;244;39511;-74
2023/12/21 07:32:14;;;;;;;2.90;2.50;;;;;;;3.75;94.94;98542.88;110957;244;38227;-72
2023/12/21 07:34:49;;;;;;;3.40;2.10;;;;;;;3.75;94.91;98540.83;110965;244;40101;-77
2023/12/21 07:37:23;;;;;;;2.60;1.90;;;;;;;3.77;95.14;98537.30;111019;244;39783;-75
2023/12/21 07:39:56;;;;;;;4.50;2.60;;;;;;;3.78;95.20;98525.16;110842;244;153798;-73
2023/12/21 07:42:30;;;;;;;2.80;2.60;;;;;;;3.80;95.22;98522.00;110995;244;39085;-75
2023/12/21 07:45:06;;;;;;;2.60;2.20;;;;;;;3.81;95.25;98523.16;110877;244;153173;-73
2023/12/21 07:47:39;;;;;;;2.30;2.10;;;;;;;3.83;95.41;98522.05;111133;244;38622;-71
2023/12/21 07:50:13;;;;;;;2.10;1.90;;;;;;;3.87;95.49;98516.38;110970;244;39317;-72
2023/12/21 07:52:48;;;;;;;2.90;2.00;;;;;;;3.91;95.60;98508.81;110848;243;175735;-68
2023/12/21 07:55:22;;;;;;;2.80;2.30;;;;;;;3.95;95.57;98505.73;110986;244;38852;-69
2023/12/21 07:57:55;;;;;;;3.10;2.80;;;;;;;3.98;95.63;98499.86;109950;242;1149199;-68
2023/12/21 08:00:32;;;;;;;2.80;2.40;;;;;;;3.99;95.64;98494.30;110929;244;39966;-68
2023/12/21 08:03:08;;;;;;;6.50;2.90;;;;;;;4.02;95.70;98486.11;110980;244;38470;-72
2023/12/21 08:05:42;;;;;;;2.60;2.30;;;;;;;4.01;95.65;98475.80;111008;244;38375;-71
2023/12/21 08:08:16;;;;;;;3.30;2.30;;;;;;;4.02;95.79;98471.60;110940;244;38628;-69
2023/12/21 08:10:51;;;;;;;3.00;2.40;;;;;;;4.05;95.91;98470.08;110822;244;154111;-69
2023/12/21 08:13:26;;;;;;;2.90;2.60;;;;;;;4.06;95.89;98460.91;110937;244;38523;-70
2023/12/21 08:16:00;;;;;;;2.60;2.40;;;;;;;4.06;96.00;98458.30;110908;242;153125;-74
2023/12/21 08:18:34;;;;;;;3.40;2.60;;;;;;;4.05;96.10;98453.86;110962;244;38230;-72
2023/12/21 08:21:11;;;;;;;2.50;2.30;;;;;;;4.04;96.15;98452.20;110952;242;154739;-71
2023/12/21 08:23:45;;;;;;;2.40;1.90;;;;;;;4.05;96.43;98439.73;110390;244;912941;-71
2023/12/21 08:26:20;;;;;;;2.70;2.00;;;;;;;4.07;96.43;98432.71;110898;244;176685;-67
2023/12/21 08:28:59;;;;;;;2.40;2.20;;;;;;;4.13;96.71;98428.17;111072;244;38813;-69
2023/12/21 08:31:33;;;;;;;2.50;2.00;;;;;;;4.16;96.90;98419.58;110956;244;39498;-70
2023/12/21 08:34:07;;;;;;;2.30;2.10;;;;;;;4.17;96.82;98411.80;110748;242;175814;-74
2023/12/21 08:36:41;;;;;;;1.80;1.70;;;;;;;4.19;96.96;98402.73;110973;244;39371;-68
2023/12/21 08:39:16;;;;;;;1.80;1.60;;;;;;;4.20;96.82;98393.37;110860;242;153563;-68
2023/12/21 08:41:50;;;;;;;2.60;2.00;;;;;;;4.20;96.82;98387.86;110955;244;38806;-73
2023/12/21 08:44:24;;;;;;;1.90;1.40;;;;;;;4.23;96.89;98382.52;111034;244;39015;-73
2023/12/21 08:46:58;;;;;;;3.60;2.10;;;;;;;4.29;97.09;98370.00;110851;243;173043;-69
2023/12/21 08:49:31;;;;;;;1.70;1.50;;;;;;;4.33;97.07;98363.09;111055;243;38493;-70
2023/12/21 08:52:06;;;;;;;2.50;1.70;;;;;;;4.34;96.94;98354.56;111064;241;153257;-71
2023/12/21 08:54:40;;;;;;;2.30;1.90;;;;;;;4.34;96.92;98352.84;111255;243;39576;-69
2023/12/21 08:57:16;;;;;;;3.10;2.10;;;;;;;4.32;96.77;98345.52;111128;241;154010;-70
2023/12/21 08:59:51;;;;;;;2.20;1.70;;;;;;;4.31;96.75;98339.89;111218;243;39402;-68
2023/12/21 09:02:35;;;;;;;2.80;2.10;;;;;;;4.31;97.04;98337.42;111236;243;38318;-69
2023/12/21 09:05:14;;;;;;;3.00;2.10;;;;;;;4.33;97.13;98334.57;111237;243;38357;-69
2023/12/21 09:07:48;;;;;;;2.70;1.70;;;;;;;4.35;97.22;98326.40;111291;243;38612;-74
2023/12/21 09:10:22;;;;;;;2.50;1.70;;;;;;;4.35;97.24;98319.99;111195;243;153502;-72
2023/12/21 09:12:56;;;;;;;2.00;1.60;;;;;;;4.33;97.13;98310.10;111268;243;39700;-70
2023/12/21 09:15:30;;;;;;;1.50;1.40;;;;;;;4.32;97.09;98300.64;111093;241;153554;-70
2023/12/21 09:18:10;;;;;;;1.50;1.40;;;;;;;4.32;97.07;98290.79;111245;242;38268;-69
2023/12/21 09:20:49;;;;;;;2.00;1.40;;;;;;;4.33;97.11;98282.80;111221;243;38533;-71
2023/12/21 09:23:37;;;;;;;1.70;1.60;;;;;;;4.35;97.28;98273.06;111206;243;38414;-73
2023/12/21 09:26:20;;;;;;;1.80;1.40;;;;;;;4.39;97.23;98265.98;111216;243;39394;-72
2023/12/21 09:28:55;;;;;;;1.50;1.40;;;;;;;4.40;97.10;98263.00;110854;242;153430;-74
2023/12/21 09:31:29;;;;;;;1.80;1.20;;;;;;;4.36;97.09;98260.77;110893;243;38255;-69
2023/12/21 09:34:07;;;;;;;1.60;1.40;;;;;;;4.37;97.29;98251.02;110821;242;154432;-70
2023/12/21 09:36:41;;;;;;;1.10;1.00;;;;;;;4.41;97.44;98244.14;110989;244;39712;-70
2023/12/21 09:39:15;;;;;;;1.40;1.10;;;;;;;4.43;97.40;98235.24;110868;244;175798;-70
2023/12/21 09:41:50;;;;;;;1.20;1.10;;;;;;;4.45;97.50;98227.38;110985;244;38432;-73
2023/12/21 09:44:24;;;;;;;1.60;1.30;;;;;;;4.48;97.35;98219.79;110876;244;175747;-74
2023/12/21 09:46:59;;;;;;;2.30;1.30;;;;;;;4.49;97.45;98214.59;110976;244;38309;-74
2023/12/21 09:49:36;;;;;;;2.60;1.50;;;;;;;4.50;97.55;98205.89;110993;244;38330;-72
2023/12/21 09:52:11;;;;;;;2.20;1.30;;;;;;;4.50;97.59;98205.73;111044;244;38485;-71
2023/12/21 09:54:46;;;;;;;1.60;1.30;;;;;;;4.51;97.57;98199.30;111032;244;39522;-68
2023/12/21 09:57:20;;;;;;;2.00;1.30;;;;;;;4.51;97.44;98189.08;110999;244;38434;-70
2023/12/21 09:59:57;;;;;;;1.40;1.20;;;;;;;4.56;97.74;98181.94;110989;244;38163;-71
2023/12/21 10:02:31;;;;;;;2.60;1.40;;;;;;;4.60;97.82;98183.81;110974;244;38246;-68
2023/12/21 10:05:11;;;;;;;2.20;1.90;;;;;;;4.65;98.04;98174.08;110907;241;153148;-68
2023/12/21 10:07:46;;;;;;;1.70;1.40;;;;;;;4.67;98.01;98174.35;111036;244;38307;-72
2023/12/21 10:10:20;;;;;;;2.30;1.20;;;;;;;4.66;97.98;98164.37;110997;243;38258;-74
2023/12/21 10:12:54;;;;;;;1.90;1.30;;;;;;;4.67;98.08;98156.88;110920;244;40366;-74
2023/12/21 10:15:32;;;;;;;1.40;1.10;;;;;;;4.71;98.20;98145.48;110787;241;154473;-72
2023/12/21 10:18:10;;;;;;;1.60;1.40;;;;;;;4.74;98.41;98139.64;110902;244;38368;-70
2023/12/21 10:20:45;;;;;;;1.90;1.30;;;;;;;4.76;98.45;98133.80;110964;244;39315;-72
2023/12/21 10:23:19;;;;;;;2.20;1.20;;;;;;;4.79;98.48;98128.34;110892;241;155038;-72
2023/12/21 10:25:55;;;;;;;1.40;1.20;;;;;;;4.81;98.61;98125.27;110985;243;38257;-71
2023/12/21 10:28:30;;;;;;;1.50;1.20;;;;;;;4.80;98.71;98124.47;110823;241;153348;-73
2023/12/21 10:31:05;;;;;;;1.70;1.20;;;;;;;4.78;98.60;98115.41;110966;244;38560;-71
2023/12/21 10:33:41;;;;;;;1.50;1.30;;;;;;;4.80;98.80;98099.89;110881;241;154720;-72
2023/12/21 10:36:19;;;;;;;2.30;1.70;;;;;;;4.86;98.97;98094.27;111072;243;38331;-71
2023/12/21 10:38:53;;;;;;;2.50;1.40;;;;;;;4.90;99.00;98081.63;111005;244;38640;-71
2023/12/21 10:41:29;;;;;;;2.20;1.60;;;;;;;4.91;99.02;98076.01;110859;241;153547;-75
2023/12/21 10:44:03;;;;;;;2.60;1.70;;;;;;;4.95;98.94;98071.52;110940;244;38378;-74
2023/12/21 10:46:38;;;;;;;2.40;1.20;;;;;;;4.97;98.97;98071.42;110906;241;154449;-74
2023/12/21 10:49:13;;;;;;;3.10;1.40;;;;;;;5.00;99.01;98065.72;111012;243;38955;-74
2023/12/21 10:51:47;;;;;;;2.10;1.60;;;;;;;5.04;99.11;98060.02;110903;241;154000;-71
2023/12/21 10:54:22;;;;;;;2.80;1.50;;;;;;;5.08;99.17;98047.17;110928;245;39596;-70
2023/12/21 10:56:56;;;;;;;2.00;1.80;;;;;;;5.09;99.16;98045.05;110958;245;39103;-73
2023/12/21 10:59:30;;;;;;;2.10;1.90;;;;;;;5.08;99.21;98036.78;110806;243;154058;-74
2023/12/21 11:02:05;;;;;;;2.20;1.60;;;;;;;5.07;99.16;98024.21;110962;245;37904;-74
2023/12/21 11:04:39;;;;;;;3.00;1.70;;;;;;;5.10;99.26;98021.64;110823;241;154637;-74
2023/12/21 11:07:13;;;;;;;4.90;1.90;;;;;;;5.14;99.32;98011.95;111041;244;39433;-73
2023/12/21 11:09:47;;;;;;;1.60;1.40;;;;;;;5.15;99.40;97997.03;110968;241;154044;-72
2023/12/21 11:12:23;;;;;;;2.40;1.80;;;;;;;5.16;99.41;97989.17;111123;243;38862;-73
2023/12/21 11:14:56;;;;;;;1.70;1.60;;;;;;;5.19;99.63;97984.38;111070;243;38269;-72
2023/12/21 11:17:33;;;;;;;2.20;1.70;;;;;;;5.23;99.72;97983.45;110984;241;154947;-70
2023/12/21 11:20:10;;;;;;;1.60;1.40;;;;;;;5.26;99.74;97968.59;111119;243;38324;-70
2023/12/21 11:22:44;;;;;;;1.50;1.40;;;;;;;5.33;99.87;97958.38;111011;241;154461;-70
2023/12/21 11:25:23;;;;;;;2.80;1.50;;;;;;;5.37;99.96;97956.05;111073;243;39700;-70
2023/12/21 11:27:57;;;;;;;1.90;1.50;;;;;;;5.42;99.90;97950.75;110352;241;923177;-73
2023/12/21 11:30:33;;;;;;;2.60;1.70;;;;;;;5.46;99.84;97947.63;111148;243;38551;-73
2023/12/21 11:33:11;;;;;;;2.10;1.90;;;;;;;5.49;99.91;97942.10;110932;243;175724;-73
2023/12/21 11:35:55;;;;;;;2.30;1.70;;;;;;;5.48;99.69;97933.49;110997;243;38607;-69
2023/12/21 11:38:45;;;;;;;2.60;1.50;;;;;;;5.48;99.63;97922.06;111120;243;38713;-68
2023/12/21 11:41:24;;;;;;;1.90;1.60;;;;;;;5.51;99.81;97912.03;110933;242;154886;-73
2023/12/21 11:44:04;;;;;;;2.50;1.70;;;;;;;5.53;99.99;97908.64;110954;244;38267;-73
2023/12/21 11:46:38;;;;;;;1.90;1.60;;;;;;;5.53;99.81;97898.45;110881;242;153932;-70
2023/12/21 11:49:13;;;;;;;3.50;1.90;;;;;;;5.52;99.87;97892.77;110969;244;38329;-71
2023/12/21 11:51:59;;;;;;;1.90;1.60;;;;;;;5.55;99.88;97889.18;110996;244;38643;-69
2023/12/21 11:54:37;;;;;;;2.20;1.50;;;;;;;5.58;99.99;97885.36;110963;244;40357;-69
2023/12/21 11:57:17;;;;;;;2.30;1.60;;;;;;;5.60;99.93;97882.98;110949;244;39976;-73
2023/12/21 12:00:09;;;;;;;2.50;1.50;;;;;;;5.62;99.87;97875.27;110852;244;172963;-73
2023/12/21 12:02:44;;;;;;;3.10;1.70;;;;;;;5.65;99.96;97871.83;110962;244;39460;-70
2023/12/21 12:05:24;;;;;;;1.60;1.40;;;;;;;5.65;99.92;97862.27;110879;242;153467;-72
2023/12/21 12:08:04;;;;;;;1.50;1.40;;;;;;;5.66;99.91;97857.06;111048;244;38642;-70
2023/12/21 12:10:43;;;;;;;2.00;1.60;;;;;;;5.66;99.89;97840.59;110988;244;38287;-71
2023/12/21 12:13:21;;;;;;;1.40;1.30;;;;;;;5.66;99.85;97835.95;111005;244;39371;-70